Time;durP1;ratioP1;P1;durP2;ratioP2;P2;SDS_P1;SDS_P2;PMS_P1;PMS_P2;Temp;Humidity;BMP_temperature;BMP_pressure;BME280_temperature;BME280_humidity;BME280_pressure;Samples;Min_cycle;Max_cycle;Signal;HPM_P1;HPM_P2
2024/01/25 07:35:59;;;;;;;32.38;7.38;;;;;;;5.24;96.53;97899.75;2075125;28;20924;-69
2024/01/25 07:37:00;;;;;;;32.88;7.35;;;;;;;5.41;95.31;97894.53;2072026;28;20223;-69
2024/01/25 07:38:02;;;;;;;50.13;7.75;;;;;;;5.81;94.59;97907.28;2072517;28;20197;-69
2024/01/25 07:40:35;;;;;;;35.78;6.63;;;;;;;6.31;91.12;97896.59;2104148;27;20577;-66
2024/01/25 07:41:36;;;;;;;40.65;11.57;;;;;;;6.64;90.02;97910.19;2093028;28;20203;-68
2024/01/25 07:43:37;;;;;;;53.50;9.38;;;;;;;7.12;87.08;97912.31;2115305;27;20554;-68
2024/01/25 07:44:39;;;;;;;64.95;13.63;;;;;;;7.21;86.13;97913.97;2113139;28;20207;-67
2024/01/25 07:45:40;;;;;;;40.15;8.23;;;;;;;7.19;85.15;97904.44;2103584;28;20272;-70
2024/01/25 07:46:42;;;;;;;33.08;6.97;;;;;;;7.47;84.60;97916.28;2102129;28;20232;-71
2024/01/25 07:47:44;;;;;;;37.00;5.43;;;;;;;7.61;83.61;97921.31;2099538;28;20190;-70
2024/01/25 07:48:45;;;;;;;25.73;5.53;;;;;;;7.80;82.88;97927.97;2099624;28;20700;-70
2024/01/25 07:49:48;;;;;;;26.50;6.32;;;;;;;8.07;81.96;97922.44;2101217;28;20209;-70
2024/01/25 07:50:50;;;;;;;28.40;6.15;;;;;;;8.14;81.04;97931.88;2107490;28;20218;-68
2024/01/25 07:51:52;;;;;;;43.80;12.23;;;;;;;8.24;80.20;97923.03;2109800;28;20556;-69
2024/01/25 07:52:54;;;;;;;42.97;9.05;;;;;;;8.45;79.52;97927.03;2109794;28;20205;-70
2024/01/25 07:53:56;;;;;;;36.20;7.90;;;;;;;8.54;78.99;97928.69;2109265;28;20202;-68
2024/01/25 07:54:58;;;;;;;48.40;12.15;;;;;;;8.75;78.24;97929.22;2109617;28;20243;-67
2024/01/25 07:55:59;;;;;;;37.30;7.00;;;;;;;8.77;78.04;97922.22;2101876;28;20228;-67
2024/01/25 07:57:01;;;;;;;26.33;5.70;;;;;;;8.88;77.31;97929.88;2102146;28;20224;-67
2024/01/25 07:58:02;;;;;;;26.92;5.55;;;;;;;8.94;76.97;97919.34;2101003;28;20254;-67
2024/01/25 07:59:04;;;;;;;28.42;5.47;;;;;;;8.90;76.56;97922.88;2099551;28;20293;-67
2024/01/25 08:00:08;;;;;;;23.08;5.47;;;;;;;8.83;76.72;97922.97;2099712;28;20312;-67
2024/01/25 08:01:09;;;;;;;29.60;5.13;;;;;;;9.12;75.79;97934.63;2099436;28;20283;-67
2024/01/25 08:02:11;;;;;;;34.72;5.30;;;;;;;9.19;75.63;97926.72;2099616;28;20258;-67
2024/01/25 08:03:13;;;;;;;23.58;7.35;;;;;;;9.01;75.50;97925.31;2101131;28;20278;-67
2024/01/25 08:04:15;;;;;;;29.33;6.35;;;;;;;9.09;75.22;97921.69;2100628;28;20204;-67
2024/01/25 08:05:16;;;;;;;24.17;7.15;;;;;;;9.38;74.56;97917.63;2098878;28;20199;-67
2024/01/25 08:06:18;;;;;;;28.63;6.88;;;;;;;9.37;74.40;97917.66;2100803;28;20198;-67
2024/01/25 08:07:20;;;;;;;30.15;6.97;;;;;;;9.23;75.01;97921.41;2099323;28;20201;-67
2024/01/25 08:08:21;;;;;;;39.25;7.07;;;;;;;8.95;74.80;97916.72;2100740;28;20847;-67
2024/01/25 08:09:23;;;;;;;27.48;6.00;;;;;;;9.03;74.88;97906.16;2101206;28;20540;-67
2024/01/25 08:10:25;;;;;;;27.08;6.10;;;;;;;9.19;74.90;97909.31;2102532;28;20260;-67
2024/01/25 08:11:27;;;;;;;25.17;5.68;;;;;;;9.42;73.52;97913.22;2108603;28;20323;-67
2024/01/25 08:12:28;;;;;;;23.92;5.70;;;;;;;9.34;73.23;97917.75;2108208;28;20639;-67
2024/01/25 08:13:30;;;;;;;29.70;5.30;;;;;;;9.59;72.79;97905.94;2110859;28;20272;-67
2024/01/25 08:14:35;;;;;;;19.85;5.05;;;;;;;9.74;72.33;97914.34;2110177;28;20731;-67
2024/01/25 08:15:37;;;;;;;29.25;6.18;;;;;;;9.86;71.95;97910.59;2110259;28;20225;-67
2024/01/25 08:16:38;;;;;;;48.70;6.70;;;;;;;9.70;72.11;97904.84;2108669;28;20201;-67
2024/01/25 08:17:40;;;;;;;21.70;4.72;;;;;;;9.91;71.35;97906.97;2109277;28;20194;-67
2024/01/25 08:18:43;;;;;;;37.33;6.38;;;;;;;9.88;71.00;97907.06;2108731;28;20222;-67
2024/01/25 08:19:46;;;;;;;25.08;4.30;;;;;;;10.11;70.15;97900.47;2109311;28;20615;-67
2024/01/25 08:20:51;;;;;;;25.60;4.80;;;;;;;10.38;69.83;97901.59;2108375;28;20246;-67
2024/01/25 08:21:53;;;;;;;28.13;5.63;;;;;;;10.44;69.60;97905.84;2109334;28;20194;-67
2024/01/25 08:22:54;;;;;;;19.05;4.45;;;;;;;10.56;69.80;97904.66;2110038;28;20241;-67
2024/01/25 08:23:56;;;;;;;24.90;4.65;;;;;;;10.83;68.63;97899.66;2110578;28;20214;-67
2024/01/25 08:24:58;;;;;;;20.83;4.25;;;;;;;10.71;68.27;97883.38;2109833;28;20231;-67
2024/01/25 08:25:59;;;;;;;42.05;4.25;;;;;;;10.60;68.53;97893.25;2108402;28;20219;-67
2024/01/25 08:27:01;;;;;;;23.63;4.07;;;;;;;10.47;68.90;97897.06;2110049;28;20294;-67
2024/01/25 08:28:03;;;;;;;20.83;4.22;;;;;;;10.41;69.59;97891.09;2114308;28;20297;-67
2024/01/25 08:29:04;;;;;;;36.42;8.25;;;;;;;10.46;69.16;97888.34;2112344;28;20244;-67
2024/01/25 08:30:06;;;;;;;52.05;16.25;;;;;;;10.26;69.74;97884.44;2110566;28;20195;-67
2024/01/25 08:31:08;;;;;;;54.75;18.35;;;;;;;10.37;69.84;97879.00;2108793;28;20609;-67
2024/01/25 08:32:10;;;;;;;49.63;15.80;;;;;;;10.28;69.90;97876.56;2110603;28;20619;-68
2024/01/25 08:33:11;;;;;;;36.75;9.07;;;;;;;10.22;70.08;97888.03;2109908;28;20196;-67
2024/01/25 08:34:13;;;;;;;34.33;8.85;;;;;;;10.31;69.79;97879.13;2110396;28;20193;-67
2024/01/25 08:35:15;;;;;;;25.60;5.70;;;;;;;10.48;69.40;97890.97;2110264;28;20601;-67
2024/01/25 08:36:18;;;;;;;29.45;4.78;;;;;;;10.45;69.00;97890.13;2110697;28;20198;-67
2024/01/25 08:37:20;;;;;;;27.52;5.05;;;;;;;10.95;68.12;97879.28;2109949;28;20684;-67
2024/01/25 08:38:21;;;;;;;32.08;5.40;;;;;;;11.53;66.80;97882.94;2109174;28;20197;-67
2024/01/25 08:39:23;;;;;;;22.60;4.20;;;;;;;11.75;65.85;97883.16;2109027;28;20205;-68
2024/01/25 08:40:24;;;;;;;22.08;4.70;;;;;;;12.08;64.47;97873.44;2108944;28;20225;-68
2024/01/25 08:41:30;;;;;;;26.92;4.43;;;;;;;12.14;64.89;97882.03;2110788;28;20821;-68
2024/01/25 08:42:34;;;;;;;33.58;5.90;;;;;;;12.23;64.13;97882.59;2110259;28;20190;-68
2024/01/25 08:43:35;;;;;;;34.83;5.90;;;;;;;11.95;64.97;97885.19;2108604;28;20662;-68
2024/01/25 08:44:38;;;;;;;31.38;5.15;;;;;;;12.80;62.36;97886.88;2111117;28;20186;-67
2024/01/25 08:45:40;;;;;;;24.83;4.80;;;;;;;13.19;62.03;97884.66;2108240;28;20211;-67
2024/01/25 08:46:43;;;;;;;24.70;4.10;;;;;;;13.59;60.74;97881.53;2108737;28;20194;-67
2024/01/25 08:47:46;;;;;;;16.90;5.28;;;;;;;13.32;60.93;97884.19;2110241;28;20191;-67
2024/01/25 08:48:47;;;;;;;23.58;4.78;;;;;;;13.01;61.24;97877.44;2110422;28;20268;-68
2024/01/25 08:49:49;;;;;;;21.58;3.88;;;;;;;13.10;61.93;97877.09;2110442;28;20198;-68
2024/01/25 08:50:53;;;;;;;16.83;3.90;;;;;;;12.96;61.65;97876.72;2110007;28;20222;-67
2024/01/25 08:51:55;;;;;;;26.27;5.30;;;;;;;13.21;61.51;97884.59;2110619;28;20278;-68
2024/01/25 08:52:56;;;;;;;17.17;4.03;;;;;;;13.13;61.08;97882.25;2109192;28;20229;-68
2024/01/25 08:53:58;;;;;;;20.73;3.78;;;;;;;13.16;60.97;97890.00;2109708;28;20245;-68
2024/01/25 08:54:59;;;;;;;24.70;5.00;;;;;;;12.95;61.49;97893.38;2103791;28;20736;-68
2024/01/25 08:56:01;;;;;;;16.10;3.47;;;;;;;12.80;62.04;97893.00;2103951;28;20769;-68
2024/01/25 08:57:06;;;;;;;18.98;3.40;;;;;;;13.20;61.44;97896.00;2103954;28;20198;-68
2024/01/25 08:58:08;;;;;;;18.67;3.83;;;;;;;13.26;61.38;97894.94;2104081;28;20195;-68
2024/01/25 08:59:09;;;;;;;25.35;4.35;;;;;;;13.68;60.67;97907.44;2103491;28;20717;-68
2024/01/25 09:00:11;;;;;;;20.13;5.30;;;;;;;13.77;60.15;97899.19;2103097;28;20249;-68
2024/01/25 09:01:13;;;;;;;17.13;3.38;;;;;;;13.79;59.57;97913.13;2103101;28;20231;-68
2024/01/25 09:02:15;;;;;;;20.17;4.40;;;;;;;14.10;58.94;97906.69;2102476;28;20728;-68
2024/01/25 09:03:17;;;;;;;21.48;5.82;;;;;;;13.73;59.65;97907.25;2103929;28;20558;-71
2024/01/25 09:04:18;;;;;;;27.83;7.47;;;;;;;14.08;59.14;97913.81;2102389;28;20217;-71
2024/01/25 09:05:22;;;;;;;31.17;8.57;;;;;;;13.31;60.78;97912.22;2101711;28;20302;-72
2024/01/25 09:06:23;;;;;;;23.33;5.18;;;;;;;13.78;60.19;97910.56;2103646;28;20202;-71
2024/01/25 09:07:25;;;;;;;30.17;7.03;;;;;;;13.80;59.89;97912.22;2103023;28;20199;-70
2024/01/25 09:08:26;;;;;;;19.98;5.30;;;;;;;14.06;59.13;97922.66;2102918;28;20840;-70
2024/01/25 09:09:28;;;;;;;25.88;4.35;;;;;;;14.10;59.04;97926.88;2104597;28;20195;-70
2024/01/25 09:10:30;;;;;;;21.52;4.40;;;;;;;13.74;59.48;97917.69;2104155;28;20222;-71
2024/01/25 09:11:31;;;;;;;19.67;4.00;;;;;;;14.16;58.88;97927.47;2103479;28;20651;-71
2024/01/25 09:12:34;;;;;;;17.55;4.50;;;;;;;14.53;58.43;97933.91;2103033;28;20265;-71
2024/01/25 09:13:36;;;;;;;27.88;5.32;;;;;;;14.62;58.24;97934.47;2104939;28;20226;-71
2024/01/25 09:14:46;;;;;;;22.10;4.35;;;;;;;14.44;57.89;97933.44;2103603;28;20206;-71
2024/01/25 09:15:48;;;;;;;31.52;4.95;;;;;;;14.31;58.09;97926.03;2102529;28;20243;-71
2024/01/25 09:16:50;;;;;;;22.45;4.50;;;;;;;14.53;57.95;97933.91;2102609;28;20198;-71
2024/01/25 09:17:51;;;;;;;20.73;3.70;;;;;;;14.61;57.73;97930.13;2102848;28;20255;-71
2024/01/25 09:18:53;;;;;;;20.25;4.18;;;;;;;14.77;57.07;97920.72;2103716;28;20706;-71
2024/01/25 09:19:58;;;;;;;14.07;3.42;;;;;;;14.73;57.45;97927.03;2104490;28;20747;-71
2024/01/25 09:21:00;;;;;;;18.45;4.55;;;;;;;15.24;56.93;97929.31;2093217;28;20223;-71
2024/01/25 09:22:04;;;;;;;21.65;4.95;;;;;;;14.94;56.37;97932.31;2096223;28;20654;-71
2024/01/25 09:23:05;;;;;;;13.95;3.95;;;;;;;15.25;56.42;97931.00;2096457;28;20608;-71
2024/01/25 09:24:07;;;;;;;19.63;4.15;;;;;;;15.39;55.96;97928.63;2096711;28;20212;-71
2024/01/25 09:25:08;;;;;;;24.13;5.30;;;;;;;15.39;55.96;97928.63;2095966;28;20204;-71
2024/01/25 09:26:11;;;;;;;22.60;4.00;;;;;;;15.39;55.96;97928.63;2095871;28;20279;-71
2024/01/25 09:27:12;;;;;;;24.05;4.45;;;;;;;15.14;56.44;97932.31;2096355;28;20207;-64
2024/01/25 09:28:14;;;;;;;18.23;4.50;;;;;;;15.44;55.97;97931.91;2095873;28;20294;-64
2024/01/25 09:29:16;;;;;;;18.48;4.85;;;;;;;15.44;55.97;97931.91;2095044;28;20776;-64
2024/01/25 09:30:18;;;;;;;20.35;4.65;;;;;;;15.44;55.97;97931.91;2094440;28;20226;-64
2024/01/25 09:31:20;;;;;;;19.00;4.07;;;;;;;15.44;55.97;97931.91;2094038;28;20333;-64
2024/01/25 09:32:21;;;;;;;25.27;5.18;;;;;;;14.91;56.97;97933.28;2094846;28;20736;-64
2024/01/25 09:33:23;;;;;;;30.77;5.05;;;;;;;15.00;56.88;97927.63;2096225;28;20284;-64
2024/01/25 09:34:25;;;;;;;18.70;4.30;;;;;;;14.57;57.25;97936.41;2094055;28;20195;-64
2024/01/25 09:35:28;;;;;;;17.70;4.15;;;;;;;15.35;55.74;97932.31;2094320;28;20683;-64
2024/01/25 09:36:29;;;;;;;21.45;4.05;;;;;;;15.37;56.06;97940.16;2093701;28;20212;-64
2024/01/25 09:37:31;;;;;;;20.48;4.80;;;;;;;15.68;55.37;97937.88;2094655;28;20200;-64
2024/01/25 09:38:33;;;;;;;21.38;4.13;;;;;;;15.68;55.37;97937.88;2094996;28;20554;-64
2024/01/25 09:39:35;;;;;;;17.83;4.22;;;;;;;15.68;55.37;97937.88;2096115;28;20200;-64
2024/01/25 09:40:38;;;;;;;17.10;3.72;;;;;;;15.68;55.37;97937.88;2093827;28;20230;-65
2024/01/25 09:41:40;;;;;;;23.60;4.07;;;;;;;15.19;56.55;97940.00;2096213;28;20539;-64
2024/01/25 09:42:44;;;;;;;29.55;4.25;;;;;;;-145.49;100.00;55703.94;2094709;28;20193;-64
2024/01/25 09:43:46;;;;;;;25.55;4.35;;;;;;;-145.49;100.00;55703.94;2095521;28;20188;-64
2024/01/25 09:44:48;;;;;;;16.38;4.32;;;;;;;-145.49;100.00;55703.94;2094004;28;20208;-64
2024/01/25 09:45:56;;;;;;;13.55;3.70;;;;;;;-145.49;100.00;55703.94;2095787;28;20223;-64
2024/01/25 09:46:58;;;;;;;22.23;3.80;;;;;;;-145.49;100.00;55703.94;2096121;28;20192;-64
2024/01/25 09:48:00;;;;;;;18.30;3.97;;;;;;;-145.49;100.00;55703.94;2096130;28;20711;-64
2024/01/25 09:49:02;;;;;;;21.20;5.43;;;;;;;-145.49;100.00;55703.94;2094400;28;20707;-64
2024/01/25 09:50:05;;;;;;;18.17;3.45;;;;;;;-145.49;100.00;55703.94;2088467;28;20218;-66
2024/01/25 09:51:06;;;;;;;14.98;3.35;;;;;;;-145.49;100.00;55703.94;2094529;28;20588;-64
2024/01/25 09:52:12;;;;;;;23.20;5.40;;;;;;;-145.49;100.00;55703.94;2094294;28;20720;-64
2024/01/25 09:53:21;;;;;;;14.80;3.70;;;;;;;-145.49;100.00;55703.94;2096022;28;20204;-64
2024/01/25 09:54:23;;;;;;;14.70;3.47;;;;;;;-145.49;100.00;55703.94;2095908;28;20219;-64
2024/01/25 09:55:26;;;;;;;19.58;3.72;;;;;;;-145.49;100.00;55703.94;2094524;28;20223;-64
2024/01/25 09:56:32;;;;;;;16.20;4.15;;;;;;;-145.49;100.00;55703.94;2095785;28;20191;-64
2024/01/25 09:57:38;;;;;;;29.85;4.30;;;;;;;-145.49;100.00;55703.94;2092755;28;20192;-63
2024/01/25 09:58:42;;;;;;;17.55;4.68;;;;;;;-145.49;100.00;55703.94;2093524;28;20311;-64
2024/01/25 09:59:44;;;;;;;19.33;3.65;;;;;;;-145.49;100.00;55703.94;2095448;28;20688;-64
2024/01/25 10:00:46;;;;;;;18.33;3.92;;;;;;;-145.49;100.00;55703.94;2087929;28;20306;-64
2024/01/25 10:01:48;;;;;;;19.17;3.80;;;;;;;-145.49;100.00;55703.94;2104210;28;20313;-62
2024/01/25 10:02:50;;;;;;;25.67;8.45;;;;;;;-145.49;100.00;55703.94;2096786;28;20202;-63
2024/01/25 10:03:52;;;;;;;19.58;5.72;;;;;;;-145.49;100.00;55703.94;2091638;28;20246;-64
2024/01/25 10:04:53;;;;;;;16.55;3.80;;;;;;;-145.49;100.00;55703.94;2093944;28;20664;-65
2024/01/25 10:05:55;;;;;;;14.52;6.05;;;;;;;-145.49;100.00;55703.94;2093076;28;20231;-65
2024/01/25 10:06:58;;;;;;;19.40;3.38;;;;;;;-145.49;100.00;55703.94;2095001;28;20230;-64
2024/01/25 10:08:01;;;;;;;21.85;4.00;;;;;;;-145.49;100.00;55703.94;2092221;28;21075;-64
2024/01/25 10:09:04;;;;;;;15.18;3.15;;;;;;;-145.49;100.00;55703.94;2092704;28;20286;-64
2024/01/25 10:10:07;;;;;;;21.85;4.50;;;;;;;-145.49;100.00;55703.94;2092403;28;20196;-65
2024/01/25 10:11:08;;;;;;;19.10;3.40;;;;;;;-145.49;100.00;55703.94;2096574;28;20594;-65
2024/01/25 10:12:10;;;;;;;26.58;4.80;;;;;;;-145.49;100.00;55703.94;2095134;28;20196;-64
2024/01/25 10:13:19;;;;;;;13.50;2.75;;;;;;;-145.49;100.00;55703.94;2094647;28;20283;-65
2024/01/25 10:14:21;;;;;;;20.85;4.43;;;;;;;-145.49;100.00;55703.94;2095428;28;20245;-65
2024/01/25 10:15:24;;;;;;;14.50;3.60;;;;;;;-145.49;100.00;55703.94;2094346;28;20231;-65
2024/01/25 10:16:25;;;;;;;22.38;4.10;;;;;;;-145.49;100.00;55703.94;2105287;28;20229;-65
2024/01/25 10:17:28;;;;;;;18.70;3.60;;;;;;;-145.49;100.00;55703.94;2107385;28;20919;-65
2024/01/25 10:18:51;;;;;;;20.65;4.18;;;;;;;-145.49;100.00;55703.94;2101909;28;20202;-64
2024/01/25 10:19:53;;;;;;;15.35;3.85;;;;;;;-145.49;100.00;55703.94;2102069;28;20195;-65
2024/01/25 10:20:55;;;;;;;21.88;3.97;;;;;;;-145.49;100.00;55703.94;2103015;28;20304;-64
2024/01/25 10:21:57;;;;;;;18.55;4.10;;;;;;;-145.49;100.00;55703.94;2103693;28;20191;-65
2024/01/25 10:22:59;;;;;;;14.07;4.18;;;;;;;-145.49;100.00;55703.94;2103602;28;20198;-64
2024/01/25 10:24:03;;;;;;;20.15;3.35;;;;;;;-145.49;100.00;55703.94;2103385;28;20256;-65
2024/01/25 10:25:12;;;;;;;14.18;3.38;;;;;;;-145.49;100.00;55703.94;2102382;28;20204;-65
2024/01/25 10:26:15;;;;;;;16.73;3.38;;;;;;;-145.49;100.00;55703.94;2103187;28;20238;-65
2024/01/25 10:27:17;;;;;;;12.15;3.17;;;;;;;-145.49;100.00;55703.94;2103002;28;20199;-64
2024/01/25 10:28:18;;;;;;;19.95;4.03;;;;;;;-145.49;100.00;55703.94;2101425;28;20228;-65
2024/01/25 10:29:20;;;;;;;15.70;3.40;;;;;;;-145.49;100.00;55703.94;2100845;28;20206;-65
2024/01/25 10:30:23;;;;;;;16.75;3.63;;;;;;;-145.49;100.00;55703.94;2100814;28;20198;-65
2024/01/25 10:31:25;;;;;;;16.90;4.63;;;;;;;-145.49;100.00;55703.94;2104627;28;20223;-65
2024/01/25 10:32:27;;;;;;;13.57;3.08;;;;;;;-145.49;100.00;55703.94;2103945;28;20226;-64
2024/01/25 10:33:29;;;;;;;14.82;3.63;;;;;;;-145.49;100.00;55703.94;2103659;28;20741;-65
2024/01/25 10:34:34;;;;;;;22.92;4.13;;;;;;;-145.49;100.00;55703.94;2103038;28;20282;-64
2024/01/25 10:35:37;;;;;;;12.68;3.10;;;;;;;-145.49;100.00;55703.94;2101089;28;20242;-65
2024/01/25 10:36:40;;;;;;;19.40;3.92;;;;;;;-145.49;100.00;55703.94;2101957;28;20662;-65
2024/01/25 10:37:42;;;;;;;18.20;3.80;;;;;;;-145.49;100.00;55703.94;2103006;28;20190;-65
2024/01/25 10:38:44;;;;;;;17.52;4.63;;;;;;;-145.49;100.00;55703.94;2102838;28;20199;-65
2024/01/25 10:39:46;;;;;;;19.20;4.22;;;;;;;-145.49;100.00;55703.94;2103188;28;20187;-65
2024/01/25 10:40:49;;;;;;;19.42;3.30;;;;;;;-145.49;100.00;55703.94;2100161;28;20241;-64
2024/01/25 10:41:52;;;;;;;13.48;3.15;;;;;;;-145.49;100.00;55703.94;2104156;28;20198;-64
2024/01/25 10:42:54;;;;;;;15.93;4.88;;;;;;;-145.49;100.00;55703.94;2105164;28;20199;-65
2024/01/25 10:43:56;;;;;;;22.55;5.32;;;;;;;-145.49;100.00;55703.94;2099858;28;20319;-65
2024/01/25 10:44:57;;;;;;;24.98;5.63;;;;;;;-145.49;100.00;55703.94;2101282;28;20253;-64
2024/01/25 10:45:59;;;;;;;16.27;3.55;;;;;;;-145.49;100.00;55703.94;2101564;28;20254;-65
2024/01/25 10:47:05;;;;;;;14.23;3.30;;;;;;;-145.49;100.00;55703.94;2102748;28;20487;-64
2024/01/25 10:48:07;;;;;;;17.70;3.83;;;;;;;-145.49;100.00;55703.94;2102560;28;20291;-64
2024/01/25 10:49:09;;;;;;;18.75;3.90;;;;;;;-145.49;100.00;55703.94;2101096;28;20198;-64
2024/01/25 10:50:13;;;;;;;13.63;3.03;;;;;;;-145.49;100.00;55703.94;2100179;28;20234;-64
2024/01/25 10:51:18;;;;;;;13.43;3.00;;;;;;;-145.49;100.00;55703.94;2099475;28;20194;-64
2024/01/25 10:52:20;;;;;;;13.77;3.40;;;;;;;-145.49;100.00;55703.94;2103226;28;20286;-64
2024/01/25 10:53:23;;;;;;;19.48;3.38;;;;;;;-145.49;100.00;55703.94;2102655;28;20711;-65
2024/01/25 10:54:25;;;;;;;19.40;3.80;;;;;;;-145.49;100.00;55703.94;2103586;28;20223;-64
2024/01/25 10:55:28;;;;;;;17.50;3.00;;;;;;;-145.49;100.00;55703.94;2100802;28;20246;-64
2024/01/25 10:56:29;;;;;;;16.48;3.88;;;;;;;-145.49;100.00;55703.94;2112161;28;20841;-64
2024/01/25 10:57:39;;;;;;;14.73;3.45;;;;;;;-145.49;100.00;55703.94;2111995;28;20237;-64
2024/01/25 10:58:41;;;;;;;18.13;3.67;;;;;;;-145.49;100.00;55703.94;2101287;28;20305;-64
2024/01/25 10:59:43;;;;;;;27.95;4.20;;;;;;;-145.49;100.00;55703.94;2099853;28;20620;-65
2024/01/25 11:01:01;;;;;;;16.77;3.30;;;;;;;-145.49;100.00;55703.94;2099289;28;20247;-64
2024/01/25 11:02:04;;;;;;;14.93;3.28;;;;;;;-145.49;100.00;55703.94;2100541;28;20191;-64
2024/01/25 11:03:06;;;;;;;12.13;2.95;;;;;;;-145.49;100.00;55703.94;2100506;28;20278;-65
2024/01/25 11:04:19;;;;;;;13.95;2.53;;;;;;;-145.49;100.00;55703.94;2100932;28;20313;-65
2024/01/25 11:05:23;;;;;;;13.73;3.22;;;;;;;-145.49;100.00;55703.94;2101781;28;20234;-64
2024/01/25 11:06:27;;;;;;;15.82;2.85;;;;;;;-145.49;100.00;55703.94;2104002;28;20649;-64
2024/01/25 11:07:28;;;;;;;21.27;4.18;;;;;;;-145.49;100.00;55703.94;2103433;28;20545;-64
2024/01/25 11:08:30;;;;;;;16.45;3.13;;;;;;;-145.49;100.00;55703.94;2103408;28;20244;-64
2024/01/25 11:09:33;;;;;;;14.55;3.22;;;;;;;-145.49;100.00;55703.94;2102893;28;20234;-64
2024/01/25 11:10:35;;;;;;;18.50;3.72;;;;;;;-145.49;100.00;55703.94;2102993;28;20222;-64
2024/01/25 11:11:37;;;;;;;19.17;3.92;;;;;;;-145.49;100.00;55703.94;2104328;28;20195;-64
2024/01/25 11:12:58;;;;;;;13.60;2.60;;;;;;;-145.49;100.00;55703.94;2103820;28;20259;-65
2024/01/25 11:14:00;;;;;;;18.00;2.83;;;;;;;-145.49;100.00;55703.94;2103483;28;20209;-65
2024/01/25 11:15:07;;;;;;;15.93;3.72;;;;;;;-145.49;100.00;55703.94;2103763;28;20226;-64
2024/01/25 11:16:27;;;;;;;21.40;3.45;;;;;;;-145.49;100.00;55703.94;2102280;28;20636;-64
2024/01/25 11:17:33;;;;;;;26.52;3.33;;;;;;;-145.49;100.00;55703.94;2103221;28;20196;-64
2024/01/25 11:18:34;;;;;;;12.25;2.75;;;;;;;-145.49;100.00;55703.94;2102226;28;20646;-64
2024/01/25 11:19:39;;;;;;;12.13;2.88;;;;;;;-145.49;100.00;55703.94;2102120;28;20199;-64
2024/01/25 11:20:41;;;;;;;12.77;3.15;;;;;;;-145.49;100.00;55703.94;2101607;28;20300;-64
2024/01/25 11:21:50;;;;;;;23.38;3.00;;;;;;;-145.49;100.00;55703.94;2101889;28;20195;-64
2024/01/25 11:22:59;;;;;;;16.50;3.28;;;;;;;-145.49;100.00;55703.94;2100782;28;20261;-64
2024/01/25 11:24:02;;;;;;;16.80;3.05;;;;;;;-145.49;100.00;55703.94;2102050;28;20376;-64
2024/01/25 11:25:13;;;;;;;24.95;2.58;;;;;;;-145.49;100.00;55703.94;2103244;28;20647;-64
2024/01/25 11:26:15;;;;;;;16.30;3.20;;;;;;;-145.49;100.00;55703.94;2103934;28;20857;-64
2024/01/25 11:27:17;;;;;;;17.88;3.28;;;;;;;-145.49;100.00;55703.94;2103370;28;20279;-64
2024/01/25 11:28:19;;;;;;;14.52;2.78;;;;;;;-145.49;100.00;55703.94;2101943;28;20253;-64
2024/01/25 11:29:22;;;;;;;12.25;2.40;;;;;;;-145.49;100.00;55703.94;2100506;28;20767;-65
2024/01/25 11:30:25;;;;;;;19.90;3.58;;;;;;;-145.49;100.00;55703.94;2100187;28;20199;-65
2024/01/25 11:31:27;;;;;;;19.63;3.17;;;;;;;-145.49;100.00;55703.94;2101753;28;20279;-64
2024/01/25 11:32:29;;;;;;;14.02;3.30;;;;;;;-145.49;100.00;55703.94;2102652;28;20202;-65
2024/01/25 11:33:31;;;;;;;17.77;2.78;;;;;;;-145.49;100.00;55703.94;2102877;28;20849;-63
2024/01/25 11:34:33;;;;;;;11.65;2.55;;;;;;;-145.49;100.00;55703.94;2103722;28;20206;-64
2024/01/25 11:35:35;;;;;;;15.57;3.30;;;;;;;-145.49;100.00;55703.94;2096502;28;20222;-64
2024/01/25 11:36:37;;;;;;;12.50;2.65;;;;;;;-145.49;100.00;55703.94;2103060;28;20195;-64
2024/01/25 11:37:39;;;;;;;17.42;2.65;;;;;;;-145.49;100.00;55703.94;2103031;28;20203;-64
2024/01/25 11:38:40;;;;;;;18.33;3.20;;;;;;;-145.49;100.00;55703.94;2103095;28;20201;-64
2024/01/25 11:39:43;;;;;;;11.55;2.40;;;;;;;-145.49;100.00;55703.94;2102792;28;20207;-63
2024/01/25 11:40:44;;;;;;;17.85;3.13;;;;;;;-145.49;100.00;55703.94;2102431;28;20230;-63
2024/01/25 11:41:47;;;;;;;12.68;3.13;;;;;;;-145.49;100.00;55703.94;2102544;28;20301;-64
2024/01/25 11:42:50;;;;;;;20.83;2.53;;;;;;;-145.49;100.00;55703.94;2102881;28;20202;-63
2024/01/25 11:43:52;;;;;;;18.23;4.15;;;;;;;-145.49;100.00;55703.94;2103769;28;20242;-64
2024/01/25 11:44:54;;;;;;;17.23;4.18;;;;;;;-145.49;100.00;55703.94;2101994;28;20199;-64
2024/01/25 11:45:55;;;;;;;13.27;3.05;;;;;;;-145.49;100.00;55703.94;2101924;28;20222;-64
2024/01/25 11:46:57;;;;;;;12.30;2.35;;;;;;;-145.49;100.00;55703.94;2103292;28;20246;-64
2024/01/25 11:47:58;;;;;;;10.15;2.40;;;;;;;-145.49;100.00;55703.94;2103363;28;20278;-64
2024/01/25 11:49:00;;;;;;;17.52;3.15;;;;;;;-145.49;100.00;55703.94;2103172;28;20666;-64
2024/01/25 11:50:03;;;;;;;18.50;3.78;;;;;;;-145.49;100.00;55703.94;2103227;28;20714;-64
2024/01/25 11:51:05;;;;;;;12.25;2.70;;;;;;;-145.49;100.00;55703.94;2104759;28;20222;-64
2024/01/25 11:52:07;;;;;;;13.63;3.50;;;;;;;-145.49;100.00;55703.94;2106843;28;20326;-64
2024/01/25 11:53:09;;;;;;;10.73;2.83;;;;;;;-145.49;100.00;55703.94;2100519;28;20207;-64
2024/01/25 11:54:11;;;;;;;17.27;3.35;;;;;;;-145.49;100.00;55703.94;2103552;28;20326;-64
2024/01/25 11:55:12;;;;;;;15.27;3.05;;;;;;;-145.49;100.00;55703.94;2102095;28;20191;-64
2024/01/25 11:56:19;;;;;;;14.13;3.22;;;;;;;-145.49;100.00;55703.94;2094645;28;20606;-64
2024/01/25 11:57:21;;;;;;;13.35;3.35;;;;;;;-145.49;100.00;55703.94;2094686;28;20814;-64
2024/01/25 11:58:23;;;;;;;11.07;2.65;;;;;;;-145.49;100.00;55703.94;2095001;28;20590;-64
2024/01/25 11:59:25;;;;;;;15.45;3.90;;;;;;;-145.49;100.00;55703.94;2095472;28;20713;-64
2024/01/25 12:00:26;;;;;;;10.50;2.17;;;;;;;-145.49;100.00;55703.94;2093326;28;20241;-64
2024/01/25 12:01:29;;;;;;;16.05;2.40;;;;;;;-145.49;100.00;55703.94;2093925;28;20749;-64
2024/01/25 12:02:32;;;;;;;11.68;2.95;;;;;;;-145.49;100.00;55703.94;2093535;28;20227;-63
2024/01/25 12:03:38;;;;;;;10.77;2.90;;;;;;;-145.49;100.00;55703.94;2095239;28;20192;-64
2024/01/25 12:04:40;;;;;;;11.02;2.72;;;;;;;-145.49;100.00;55703.94;2093333;28;20234;-64
2024/01/25 12:05:42;;;;;;;8.40;2.75;;;;;;;-145.49;100.00;55703.94;2093423;28;20942;-64
2024/01/25 12:06:44;;;;;;;13.75;3.33;;;;;;;-145.49;100.00;55703.94;2092930;28;20204;-64
2024/01/25 12:07:46;;;;;;;18.77;2.72;;;;;;;-145.49;100.00;55703.94;2094497;28;20322;-64
2024/01/25 12:08:48;;;;;;;12.18;3.10;;;;;;;-145.49;100.00;55703.94;2095007;28;20206;-64
2024/01/25 12:10:02;;;;;;;9.82;2.80;;;;;;;-145.49;100.00;55703.94;2094998;28;20223;-65
2024/01/25 12:11:08;;;;;;;12.38;3.15;;;;;;;-145.49;100.00;55703.94;2094735;28;20320;-64
2024/01/25 12:12:10;;;;;;;17.75;3.53;;;;;;;-145.49;100.00;55703.94;2091998;28;20207;-64
2024/01/25 12:13:12;;;;;;;17.70;3.22;;;;;;;-145.49;100.00;55703.94;2092706;28;20283;-66
2024/01/25 12:14:16;;;;;;;11.70;2.58;;;;;;;-145.49;100.00;55703.94;2095143;28;20218;-67
2024/01/25 12:15:18;;;;;;;13.27;2.50;;;;;;;-145.49;100.00;55703.94;2093620;28;20200;-66
2024/01/25 12:16:19;;;;;;;12.38;3.25;;;;;;;-145.49;100.00;55703.94;2095205;28;20253;-66
2024/01/25 12:17:21;;;;;;;14.82;2.80;;;;;;;-145.49;100.00;55703.94;2094151;28;20639;-66
2024/01/25 12:18:22;;;;;;;13.60;2.95;;;;;;;-145.49;100.00;55703.94;2094753;28;20275;-66
2024/01/25 12:19:24;;;;;;;10.18;2.08;;;;;;;-145.49;100.00;55703.94;2093799;28;20249;-63
2024/01/25 12:20:26;;;;;;;11.38;2.75;;;;;;;-145.49;100.00;55703.94;2092530;28;20245;-64
2024/01/25 12:21:28;;;;;;;17.58;2.70;;;;;;;-145.49;100.00;55703.94;2091855;28;20204;-64
2024/01/25 12:22:30;;;;;;;12.90;2.63;;;;;;;-145.49;100.00;55703.94;2091621;28;20250;-63
2024/01/25 12:23:35;;;;;;;10.65;3.22;;;;;;;-145.49;100.00;55703.94;2094228;28;20262;-63
2024/01/25 12:24:37;;;;;;;16.85;3.70;;;;;;;-145.49;100.00;55703.94;2093403;28;20196;-64